Station: Portable Btsm (Dfes)  

  Atmospheric Gas Attenuation - ITU Rec 676-11   ----------------- dB/100km -----------------
Date Time Temp RH % AH g/m3 Dew Point Wind Direction Speed kph Gust kph Barometer mB Rainfall Since 9am 24GHz 47GHz 76GHz 122GHz 134GHz 241GHz
02/09 09:10 24.6 30 6.75 6.1 6 7 1013.1 0 15.2 20.5 28.6 74.7 65.4 224.0
02/09 09:00 24.7 30 6.79 6.1 4 6 1013.1 0 15.3 20.5 28.7 75.0 65.7 225.3
02/09 08:50 24.3 30 6.64 5.8 4 6 1013.1 0 15.0 20.4 28.4 74.0 64.5 220.7
02/09 08:40 23.4 32 6.73 5.8 4 6 1013.1 0 15.2 20.7 29.0 75.6 66.1 226.5
02/09 08:30 22.9 33 6.74 5.8 2 4 1013.1 0 15.3 20.8 29.2 76.2 66.7 228.3
02/09 08:20 22.1 34 6.64 5.5 4 6 1013.1 0 15.1 20.9 29.1 76.0 66.2 226.7
02/09 08:10 21.7 34 6.49 5.5 2 6 1013.1 0 14.8 20.8 28.8 75.1 64.9 222.0
02/09 08:00 21.2 36 6.67 5.5 2 4 1013.1 0 15.2 21.1 29.5 77.1 67.3 230.3
02/09 07:50 20.3 38 6.68 5.5 2 6 1013.1 0 15.2 21.3 29.9 78.1 68.2 233.3
02/09 07:40 19.9 38 6.53 5.3 4 7 1013.1 0 14.9 21.2 29.5 77.1 66.8 228.5
02/09 07:30 19.3 39 6.47 5.2 2 4 1013.1 0 14.8 21.3 29.5 77.1 66.6 227.7
02/09 07:20 18.4 41 6.45 5 2 4 1013.1 0 14.8 21.4 29.8 77.8 67.1 229.5
02/09 07:10 17.2 44 6.44 5 0 2 1013.1 0 14.9 21.7 30.2 78.8 68.0 232.5
02/09 07:00 16 46 6.27 4.6 2 4 1013.1 0 14.5 21.8 30.0 78.4 67.1 228.9
02/09 06:50 15 49 6.28 4.4 2 4 1013.1 0 14.6 22.0 30.4 79.5 68.0 232.2
02/09 06:40 14.1 52 6.31 4.4 2 4 1013.1 0 14.7 22.3 30.9 80.6 69.2 236.0
02/09 06:30 13.6 53 6.24 4.2 2 4 1013.1 0 14.6 22.3 30.8 80.5 68.7 234.5
02/09 06:20 13 56 6.35 4.4 2 4 1013.1 0 14.8 22.6 31.5 82.2 70.6 241.0
02/09 06:10 13.1 56 6.39 4.6 0 0 1013.1 0 14.9 22.6 31.6 82.4 71.0 242.4
02/09 06:00 13.4 55 6.39 4.6 0 0 1013.1 0 14.9 22.6 31.4 82.1 70.7 241.5
02/09 05:50 13.3 55 6.35 4.5 2 4 1013.1 0 14.8 22.5 31.3 81.8 70.3 240.1
02/09 05:40 13.7 55 6.51 4.9 0 0 1013.1 0 15.1 22.7 31.8 83.0 71.9 245.7
02/09 05:30 14.1 54 6.55 5 0 0 1013.1 0 15.2 22.6 31.8 83.0 72.1 246.2
02/09 05:20 14.7 52 6.55 4.9 0 0 1013.1 0 15.2 22.5 31.5 82.4 71.5 244.4
02/09 05:10 15.1 50 6.45 4.7 0 2 1013.1 0 15.0 22.2 31.0 81.0 70.0 239.0
02/09 05:00 15.3 49 6.4 4.6 0 2 1013.1 0 14.8 22.1 30.8 80.3 69.2 236.3
02/09 04:50 15.3 49 6.4 4.7 0 2 1013.1 0 14.8 22.1 30.8 80.3 69.2 236.3
02/09 04:40 15.1 48 6.19 4.4 0 2 1013.1 0 14.4 21.8 30.1 78.5 66.9 228.1
02/09 04:30 14.9 51 6.5 4.8 0 2 1013.1 0 15.1 22.4 31.3 81.7 70.7 241.7
02/09 04:20 15 50 6.41 4.8 0 2 1013.1 0 14.9 22.2 30.9 80.7 69.6 237.6
02/09 04:10 15.1 48 6.19 4.4 0 2 1013.1 0 14.4 21.8 30.1 78.5 66.9 228.1
02/09 04:00 15.1 48 6.19 4.4 0 0 1013.1 0 14.4 21.8 30.1 78.5 66.9 228.1
02/09 03:50 15.1 50 6.45 4.8 0 0 1013.1 0 15.0 22.2 31.0 81.0 70.0 239.0
02/09 03:40 15.4 49 6.44 4.7 0 0 1013.1 0 14.9 22.1 30.9 80.6 69.6 237.7
02/09 03:30 15.8 47 6.33 4.5 0 0 1013.1 0 14.7 21.9 30.3 79.2 67.9 231.9
02/09 03:20 15.9 47 6.36 4.6 0 0 1013.1 0 14.7 21.9 30.4 79.3 68.2 232.9
02/09 03:10 16.1 46 6.31 4.6 0 0 1013.1 0 14.6 21.8 30.1 78.7 67.4 230.3
02/09 03:00 16.4 45 6.28 4.5 0 4 1013.1 0 14.6 21.7 29.9 78.1 66.8 228.2
02/09 02:50 16.5 45 6.32 4.5 0 0 1013.1 0 14.6 21.7 30.0 78.4 67.2 229.5
02/09 02:40 16.4 45 6.28 4.6 0 0 1013.1 0 14.6 21.7 29.9 78.1 66.8 228.2
02/09 02:30 17.1 43 6.26 4.6 0 0 1013.1 0 14.5 21.5 29.6 77.2 66.0 225.4
02/09 02:20 17.6 42 6.3 4.5 0 0 1013.1 0 14.6 21.4 29.6 77.1 66.1 225.6
02/09 02:10 17.8 40 6.07 4.3 2 2 1013.1 0 14.1 21.1 28.7 74.8 63.3 215.9
02/09 02:00 17.5 41 6.11 4.3 2 4 1013.1 0 14.2 21.2 28.9 75.5 64.0 218.3
02/09 01:50 17.5 43 6.41 4.8 0 2 1013.1 0 14.8 21.6 30.0 78.3 67.4 230.4
02/09 01:40 17.7 41 6.19 4.5 0 2 1013.1 0 14.3 21.2 29.1 76.0 64.7 220.9
02/09 01:30 17.8 41 6.22 4.4 0 4 1013.1 0 14.4 21.3 29.2 76.2 65.0 221.9
02/09 01:20 17.7 41 6.19 4.3 2 4 1013.1 0 14.3 21.2 29.1 76.0 64.7 220.9
02/09 01:10 17.5 42 6.26 4.5 0 0 1013.1 0 14.5 21.4 29.5 76.9 65.7 224.3
02/09 01:00 17.7 41 6.19 4.4 0 2 1013.1 0 14.3 21.2 29.1 76.0 64.7 220.9
02/09 00:50 17.6 42 6.3 4.5 2 2 1013.1 0 14.6 21.4 29.6 77.1 66.1 225.6
02/09 00:40 17.3 42 6.19 4.5 0 2 1013.1 0 14.3 21.3 29.3 76.4 65.1 222.0
02/09 00:30 17.5 43 6.41 4.9 0 0 1013.1 0 14.8 21.6 30.0 78.3 67.4 230.4
02/09 00:20 18 41 6.3 4.6 0 2 1013.1 0 14.5 21.3 29.4 76.8 65.7 224.5
02/09 00:10 18 41 6.3 4.7 0 2 1013.1 0 14.5 21.3 29.4 76.8 65.7 224.5
02/09 00:00 18 41 6.3 4.8 0 0 1013.1 0 14.5 21.3 29.4 76.8 65.7 224.5
01/09 23:50 18.9 39 6.32 4.8 0 2 1013.1 0 14.5 21.2 29.2 76.1 65.2 222.9
01/09 23:40 19.5 37 6.21 4.6 0 2 1013.1 0 14.3 20.9 28.6 74.6 63.5 216.9
01/09 23:30 19.8 37 6.32 4.7 0 0 1013.1 0 14.5 20.9 28.8 75.3 64.5 220.5
01/09 23:20 20.3 35 6.16 4.4 2 2 1013.1 0 14.2 20.6 28.1 73.4 62.4 212.9
01/09 23:10 20.6 34 6.08 4.5 0 4 1013.1 0 14.0 20.4 27.8 72.4 61.2 209.0
01/09 23:00 20.8 33 5.97 4.1 2 4 1013.1 0 13.7 20.3 27.3 71.3 59.9 204.3
01/09 22:50 20.9 33 6.01 4.2 2 4 1013.1 0 13.8 20.3 27.4 71.5 60.3 205.6
01/09 22:40 20.7 32 5.76 3.7 2 4 1013.1 0 13.3 20.0 26.7 69.5 57.7 196.5
01/09 22:30 20 34 5.88 4 2 4 1013.1 0 13.6 20.3 27.3 71.2 59.5 202.8
01/09 22:20 20.1 37 6.43 4.9 0 0 1013.1 0 14.7 21.0 29.1 76.0 65.5 224.0
01/09 22:10 20.6 35 6.26 4.6 0 0 1013.1 0 14.4 20.7 28.4 74.0 63.2 216.0
01/09 22:00 21.1 33 6.08 4.4 0 2 1013.1 0 14.0 20.3 27.6 72.0 60.9 207.8
01/09 21:50 21.6 32 6.07 4.3 0 2 1013.1 0 13.9 20.2 27.4 71.4 60.4 206.1
01/09 21:40 21.9 31 5.98 4.2 2 4 1013.1 0 13.7 20.0 27.0 70.4 59.2 202.0
01/09 21:30 21.9 31 5.98 4.3 2 4 1013.1 0 13.7 20.0 27.0 70.4 59.2 202.0
01/09 21:20 21.9 32 6.17 4.6 0 2 1013.1 0 14.1 20.3 27.6 72.1 61.3 209.2
01/09 21:10 22.1 32 6.25 4.7 0 2 1013.1 0 14.3 20.3 27.8 72.6 62.0 211.7
01/09 21:00 22.3 31 6.12 4.5 0 2 1013.1 0 14.0 20.1 27.3 71.3 60.4 206.3
01/09 20:50 22.3 31 6.12 4.7 2 2 1013.1 0 14.0 20.1 27.3 71.3 60.4 206.3
01/09 20:40 22.5 31 6.19 4.9 0 2 1013.1 0 14.1 20.2 27.5 71.7 61.0 208.4
01/09 20:30 23 31 6.37 4.9 2 4 1013.1 0 14.5 20.3 27.9 72.8 62.6 214.0
01/09 20:20 23 30 6.17 4.6 2 4 1013.1 0 14.1 20.0 27.3 71.1 60.4 206.4
01/09 20:10 23.3 30 6.27 4.7 0 2 1013.1 0 14.3 20.1 27.5 71.7 61.3 209.4
01/09 20:00 23.6 29 6.17 4.7 2 4 1013.1 0 14.1 19.9 27.1 70.6 60.0 205.0
01/09 19:50 23.8 29 6.24 4.9 0 4 1013.1 0 14.2 20.0 27.2 71.0 60.6 207.1
01/09 19:40 24.2 28 6.16 4.7 0 2 1013.1 0 14.0 19.8 26.9 70.0 59.5 203.1
01/09 19:30 24.4 28 6.23 4.7 0 0 1013.1 0 14.2 19.8 27.0 70.4 60.0 205.2
01/09 19:20 25 26 5.99 4.4 2 4 1013.1 0 13.6 19.4 26.1 67.9 57.1 195.0
01/09 19:10 25.2 26 6.05 4.4 2 4 1013.1 0 13.8 19.4 26.2 68.3 57.6 196.7
01/09 19:00 25.5 25 5.92 4.2 2 4 1013.1 0 13.5 19.2 25.7 66.9 56.1 191.3
01/09 18:50 26.3 24 5.94 4.2 0 2 1013.1 0 13.5 19.1 25.5 66.5 55.7 190.2
01/09 18:40 27.1 22 5.69 4 2 4 1013.1 0 13.0 18.6 24.5 63.8 52.7 179.6
01/09 18:30 27.8 21 5.65 3.8 2 4 1013.1 0 12.8 18.4 24.2 63.0 51.9 176.8
01/09 18:20 28.4 20 5.56 3.6 4 6 1013.1 0 12.6 18.2 23.8 61.8 50.6 172.4
01/09 18:10 28.8 20 5.68 3.5 6 6 1013.1 0 12.9 18.3 24.0 62.5 51.5 175.7
01/09 18:00 29 19 5.46 3.6 4 6 1013.1 0 12.4 18.0 23.3 60.6 49.3 167.8
01/09 17:50 29.3 20 5.84 4.1 2 4 1013.1 0 13.2 18.4 24.3 63.4 52.8 180.2
01/09 17:40 29.9 20 6.03 4.5 2 4 1013.1 0 13.6 18.5 24.7 64.4 54.2 185.4
01/09 17:30 30.4 19 5.89 4.4 2 6 1013.1 0 13.3 18.2 24.2 62.9 52.6 179.6
01/09 17:20 30.7 18 5.67 4.3 6 6 1013.1 0 12.8 17.9 23.5 61.0 50.3 171.5
01/09 17:10 31 18 5.76 4.4 4 6 1013.1 0 13.0 18.0 23.6 61.5 51.0 173.9
01/09 17:00 30.8 18 5.7 4.1 7 13 1013.1 0 12.9 17.9 23.5 61.2 50.5 172.3
01/09 16:50 31.4 18 5.89 4.4 9 15 1013.1 0 13.2 18.0 23.9 62.2 52.0 177.5
01/09 16:40 31.7 18 5.98 4.7 6 9 1013.1 0 13.4 18.1 24.1 62.7 52.6 179.8

Last Refresh: 02-Sep-2026 11:02:02

Bureau of Meteorology